Time;durP1;ratioP1;P1;durP2;ratioP2;P2;SDS_P1;SDS_P2;PMS_P1;PMS_P2;Temp;Humidity;BMP_temperature;BMP_pressure;BME280_temperature;BME280_humidity;BME280_pressure;Samples;Min_cycle;Max_cycle;Signal;HPM_P1;HPM_P2
2022/07/12 00:01:19;;;;;;;8.43;7.53;;;;;;;;;;5100908;28;20223;-59
2022/07/12 00:03:47;;;;;;;8.13;7.43;;;;;;;;;;5100402;28;20282;-60
2022/07/12 00:06:14;;;;;;;8.10;7.40;;;;;;;;;;5080898;28;20636;-60
2022/07/12 00:08:43;;;;;;;8.30;7.53;;;;;;;;;;5080913;28;20236;-60
2022/07/12 00:11:11;;;;;;;7.75;6.97;;;;;;;;;;5080405;28;20291;-59
2022/07/12 00:13:38;;;;;;;7.82;7.13;;;;;;;;;;5080416;28;20232;-59
2022/07/12 00:16:06;;;;;;;8.32;7.57;;;;;;;;;;5080600;28;20287;-59
2022/07/12 00:18:34;;;;;;;7.90;7.20;;;;;;;;;;5080304;28;20212;-59
2022/07/12 00:21:01;;;;;;;7.90;7.13;;;;;;;;;;5080441;28;20220;-59
2022/07/12 00:23:29;;;;;;;8.27;7.47;;;;;;;;;;5080206;28;20611;-59
2022/07/12 00:26:00;;;;;;;7.68;6.88;;;;;;;;;;5080377;28;20239;-59
2022/07/12 00:28:28;;;;;;;6.93;6.32;;;;;;;;;;5080294;28;20529;-59
2022/07/12 00:30:56;;;;;;;7.03;6.43;;;;;;;;;;5080297;28;20678;-60
2022/07/12 00:33:23;;;;;;;7.43;6.78;;;;;;;;;;5080497;28;20236;-60
2022/07/12 00:35:51;;;;;;;7.28;6.57;;;;;;;;;;5080485;28;20212;-60
2022/07/12 00:38:18;;;;;;;6.82;6.22;;;;;;;;;;5079864;28;20208;-60
2022/07/12 00:40:45;;;;;;;6.72;6.13;;;;;;;;;;5079998;28;20247;-59
2022/07/12 00:43:14;;;;;;;7.00;6.40;;;;;;;;;;5079782;28;20236;-60
2022/07/12 00:45:42;;;;;;;7.25;6.63;;;;;;;;;;5079811;28;20270;-59
2022/07/12 00:48:10;;;;;;;7.75;6.28;;;;;;;;;;5080125;28;20538;-59
2022/07/12 00:50:37;;;;;;;6.45;5.85;;;;;;;;;;5080251;28;20251;-59
2022/07/12 00:53:05;;;;;;;6.38;5.88;;;;;;;;;;5079719;28;20240;-59
2022/07/12 00:55:33;;;;;;;6.60;6.00;;;;;;;;;;5079379;28;20263;-59
2022/07/12 00:58:00;;;;;;;6.93;6.32;;;;;;;;;;5079921;28;20243;-59
2022/07/12 01:00:30;;;;;;;6.38;5.88;;;;;;;;;;5079948;28;20273;-59
2022/07/12 01:02:58;;;;;;;6.45;5.85;;;;;;;;;;5079914;28;20633;-59
2022/07/12 01:05:28;;;;;;;6.43;5.82;;;;;;;;;;5079400;28;20243;-59
2022/07/12 01:07:56;;;;;;;7.15;6.40;;;;;;;;;;5079814;28;20271;-59
2022/07/12 01:10:24;;;;;;;5.93;5.43;;;;;;;;;;5079490;28;20234;-59
2022/07/12 01:12:52;;;;;;;5.97;5.47;;;;;;;;;;5079850;28;20204;-59
2022/07/12 01:15:20;;;;;;;6.15;5.55;;;;;;;;;;5079771;28;20304;-60
2022/07/12 01:17:49;;;;;;;6.50;5.90;;;;;;;;;;5079705;28;20653;-59
2022/07/12 01:20:18;;;;;;;5.78;5.28;;;;;;;;;;5079279;28;20247;-59
2022/07/12 01:22:52;;;;;;;6.00;5.40;;;;;;;;;;5079268;28;20235;-59
2022/07/12 01:25:19;;;;;;;5.85;5.32;;;;;;;;;;5079287;28;20266;-59
2022/07/12 01:27:47;;;;;;;5.80;5.28;;;;;;;;;;5079464;28;20205;-59
2022/07/12 01:30:14;;;;;;;5.68;5.18;;;;;;;;;;5079121;28;20204;-59
2022/07/12 01:32:41;;;;;;;5.57;5.07;;;;;;;;;;5079143;28;20263;-58
2022/07/12 01:35:12;;;;;;;5.72;5.22;;;;;;;;;;5078479;28;20205;-59
2022/07/12 01:37:40;;;;;;;5.38;4.88;;;;;;;;;;5078995;28;20528;-59
2022/07/12 01:40:10;;;;;;;5.35;4.88;;;;;;;;;;5078988;28;20251;-59
2022/07/12 01:42:38;;;;;;;5.65;5.07;;;;;;;;;;5082537;28;20265;-59
2022/07/12 01:45:07;;;;;;;4.65;4.25;;;;;;;;;;5098871;28;20203;-59
2022/07/12 01:47:34;;;;;;;5.10;4.47;;;;;;;;;;5093548;28;20196;-59
2022/07/12 01:50:02;;;;;;;5.55;4.80;;;;;;;;;;5080788;28;20296;-59
2022/07/12 01:52:29;;;;;;;5.38;4.90;;;;;;;;;;5098827;28;20243;-59
2022/07/12 01:54:58;;;;;;;4.88;4.47;;;;;;;;;;5097761;28;20214;-59
2022/07/12 01:57:27;;;;;;;4.90;4.50;;;;;;;;;;5097432;28;20250;-58
2022/07/12 01:59:55;;;;;;;4.70;4.30;;;;;;;;;;5098151;28;20207;-59
2022/07/12 02:02:23;;;;;;;4.88;4.47;;;;;;;;;;5098033;28;20273;-58
2022/07/12 02:04:50;;;;;;;5.43;4.85;;;;;;;;;;5098823;28;20207;-58
2022/07/12 02:07:18;;;;;;;4.70;4.30;;;;;;;;;;5098246;28;20231;-59
2022/07/12 02:09:45;;;;;;;4.90;4.50;;;;;;;;;;5098845;28;20302;-59
2022/07/12 02:12:13;;;;;;;4.40;4.00;;;;;;;;;;5098464;28;20230;-59
2022/07/12 02:14:42;;;;;;;4.43;4.03;;;;;;;;;;5098410;28;20214;-59
2022/07/12 02:17:09;;;;;;;4.15;3.85;;;;;;;;;;5098441;28;20268;-58
2022/07/12 02:19:37;;;;;;;4.60;4.20;;;;;;;;;;5098328;28;20234;-58
2022/07/12 02:22:05;;;;;;;4.40;4.00;;;;;;;;;;5098174;28;20658;-58
2022/07/12 02:24:32;;;;;;;4.47;4.07;;;;;;;;;;5098443;28;20207;-58
2022/07/12 02:27:00;;;;;;;4.60;4.20;;;;;;;;;;5098163;28;20269;-59
2022/07/12 02:29:27;;;;;;;3.92;3.63;;;;;;;;;;5098619;28;20550;-58
2022/07/12 02:31:56;;;;;;;4.47;4.07;;;;;;;;;;5098361;28;20264;-59
2022/07/12 02:34:24;;;;;;;4.10;3.70;;;;;;;;;;5098334;28;20257;-59
2022/07/12 02:36:51;;;;;;;3.92;3.63;;;;;;;;;;5098039;28;20204;-59
2022/07/12 02:39:19;;;;;;;4.25;3.85;;;;;;;;;;5098184;28;20223;-58
2022/07/12 02:41:46;;;;;;;3.78;3.45;;;;;;;;;;5098162;28;20253;-58
2022/07/12 02:44:14;;;;;;;4.03;3.72;;;;;;;;;;5098051;28;20308;-58
2022/07/12 02:46:41;;;;;;;4.07;3.70;;;;;;;;;;5098168;28;20243;-58
2022/07/12 02:49:11;;;;;;;4.15;3.75;;;;;;;;;;5098400;28;20203;-59
2022/07/12 02:51:38;;;;;;;4.00;3.70;;;;;;;;;;5098173;28;20199;-59
2022/07/12 02:54:06;;;;;;;3.80;3.47;;;;;;;;;;5097891;28;20214;-59
2022/07/12 02:56:33;;;;;;;4.13;3.72;;;;;;;;;;5098007;28;20259;-58
2022/07/12 02:59:01;;;;;;;3.85;3.55;;;;;;;;;;5097984;28;20204;-58
2022/07/12 03:01:29;;;;;;;3.80;3.40;;;;;;;;;;5097972;28;20204;-58
2022/07/12 03:03:57;;;;;;;3.50;3.20;;;;;;;;;;5098088;28;20264;-59
2022/07/12 03:06:25;;;;;;;3.88;3.58;;;;;;;;;;5098148;28;20213;-66
2022/07/12 03:08:53;;;;;;;4.05;3.70;;;;;;;;;;5097419;28;20231;-58
2022/07/12 03:11:20;;;;;;;3.63;3.33;;;;;;;;;;5097973;28;20502;-58
2022/07/12 03:13:48;;;;;;;3.75;3.38;;;;;;;;;;5097773;28;20303;-59
2022/07/12 03:16:16;;;;;;;3.50;3.20;;;;;;;;;;5097819;28;20264;-58
2022/07/12 03:18:43;;;;;;;3.15;2.95;;;;;;;;;;5098113;28;20264;-59
2022/07/12 03:21:11;;;;;;;2.83;2.63;;;;;;;;;;5097270;28;20211;-59
2022/07/12 03:23:40;;;;;;;3.25;2.97;;;;;;;;;;5097188;28;20764;-59
2022/07/12 03:26:09;;;;;;;3.25;3.00;;;;;;;;;;5098035;28;20235;-58
2022/07/12 03:28:36;;;;;;;3.13;2.92;;;;;;;;;;5097856;28;20652;-58
2022/07/12 03:31:04;;;;;;;3.47;3.17;;;;;;;;;;5099399;28;20203;-59
2022/07/12 03:33:31;;;;;;;3.20;3.00;;;;;;;;;;5101455;28;20208;-59
2022/07/12 03:35:59;;;;;;;3.00;2.80;;;;;;;;;;5101099;28;20284;-59
2022/07/12 03:38:26;;;;;;;3.05;2.85;;;;;;;;;;5101132;28;20211;-59
2022/07/12 03:40:55;;;;;;;3.53;3.30;;;;;;;;;;5101140;28;20239;-58
2022/07/12 03:43:23;;;;;;;3.58;3.28;;;;;;;;;;5100751;28;20277;-58
2022/07/12 03:45:50;;;;;;;3.28;2.97;;;;;;;;;;5100992;28;20211;-59
2022/07/12 03:48:18;;;;;;;3.10;2.90;;;;;;;;;;5100881;28;20612;-58
2022/07/12 03:50:46;;;;;;;3.03;2.83;;;;;;;;;;5100929;28;20298;-59
2022/07/12 03:53:14;;;;;;;3.30;3.00;;;;;;;;;;5101046;28;20592;-59
2022/07/12 03:55:41;;;;;;;2.80;2.60;;;;;;;;;;5100459;28;20207;-59
2022/07/12 03:58:10;;;;;;;2.80;2.60;;;;;;;;;;5100505;28;20211;-59
2022/07/12 04:00:40;;;;;;;3.00;2.80;;;;;;;;;;5100381;28;20203;-59
2022/07/12 04:03:07;;;;;;;3.13;2.80;;;;;;;;;;5100346;28;20227;-59
2022/07/12 04:05:35;;;;;;;2.80;2.60;;;;;;;;;;5101101;28;20203;-59
2022/07/12 04:08:03;;;;;;;2.90;2.70;;;;;;;;;;5100439;28;20239;-59
2022/07/12 04:10:31;;;;;;;2.60;2.40;;;;;;;;;;5100152;28;20203;-59
2022/07/12 04:15:41;;;;;;;2.60;2.40;;;;;;;;;;5732355;22;20276;-57
2022/07/12 04:18:08;;;;;;;2.47;2.28;;;;;;;;;;5079744;28;20243;-58
2022/07/12 04:20:36;;;;;;;3.00;2.45;;;;;;;;;;5079063;28;20262;-58
2022/07/12 04:23:04;;;;;;;2.58;2.38;;;;;;;;;;5079526;28;20224;-58
2022/07/12 04:25:31;;;;;;;2.55;2.35;;;;;;;;;;5078925;28;20278;-59
2022/07/12 04:27:59;;;;;;;2.90;2.70;;;;;;;;;;5079048;28;20212;-58
2022/07/12 04:30:29;;;;;;;4.32;2.53;;;;;;;;;;5079121;28;20446;-58
2022/07/12 04:32:57;;;;;;;2.55;2.35;;;;;;;;;;5078283;28;20211;-58
2022/07/12 04:35:25;;;;;;;2.50;2.40;;;;;;;;;;5077706;28;20204;-57
2022/07/12 04:37:52;;;;;;;2.60;2.40;;;;;;;;;;5078447;28;20235;-58
2022/07/12 04:40:20;;;;;;;2.50;2.30;;;;;;;;;;5078718;28;20258;-58
2022/07/12 04:42:48;;;;;;;2.83;2.63;;;;;;;;;;5077903;28;20345;-57
2022/07/12 04:45:15;;;;;;;2.40;2.20;;;;;;;;;;5078654;28;20593;-58
2022/07/12 04:47:43;;;;;;;2.10;2.00;;;;;;;;;;5078327;28;20235;-58
2022/07/12 04:50:12;;;;;;;2.50;2.30;;;;;;;;;;5078226;28;20236;-57
2022/07/12 04:52:40;;;;;;;2.40;2.20;;;;;;;;;;5078336;28;20196;-58
2022/07/12 04:55:08;;;;;;;2.33;2.13;;;;;;;;;;5078373;28;20262;-57
2022/07/12 04:57:37;;;;;;;2.45;2.25;;;;;;;;;;5077413;28;20585;-58
2022/07/12 05:00:05;;;;;;;2.58;2.38;;;;;;;;;;5077769;28;20250;-58
2022/07/12 05:02:33;;;;;;;2.10;2.00;;;;;;;;;;5077525;28;20236;-58
2022/07/12 05:05:01;;;;;;;2.50;2.30;;;;;;;;;;5077170;28;20241;-58
2022/07/12 05:07:30;;;;;;;2.50;2.30;;;;;;;;;;5077447;28;20273;-58
2022/07/12 05:09:58;;;;;;;2.28;2.08;;;;;;;;;;5077317;28;20216;-58
2022/07/12 05:12:25;;;;;;;2.25;2.15;;;;;;;;;;5077525;28;20309;-58
2022/07/12 05:14:53;;;;;;;2.10;2.00;;;;;;;;;;5075936;28;20635;-58
2022/07/12 05:17:21;;;;;;;2.40;2.20;;;;;;;;;;5076467;28;20472;-60
2022/07/12 05:19:48;;;;;;;1.98;1.88;;;;;;;;;;5076033;28;20205;-60
2022/07/12 05:22:17;;;;;;;2.10;1.90;;;;;;;;;;5076701;28;20314;-60
2022/07/12 05:24:47;;;;;;;2.10;2.00;;;;;;;;;;5076400;28;20223;-60
2022/07/12 05:27:14;;;;;;;2.40;2.20;;;;;;;;;;5075661;28;20502;-60
2022/07/12 05:29:42;;;;;;;2.03;1.92;;;;;;;;;;5075296;28;20240;-60
2022/07/12 05:32:10;;;;;;;2.10;1.90;;;;;;;;;;5076212;28;20243;-60
2022/07/12 05:34:38;;;;;;;2.00;1.90;;;;;;;;;;5076147;28;20246;-60
2022/07/12 05:37:06;;;;;;;2.00;1.90;;;;;;;;;;5075679;28;20215;-58
2022/07/12 05:39:33;;;;;;;2.65;2.13;;;;;;;;;;5076022;28;20208;-57
2022/07/12 05:42:02;;;;;;;2.05;1.95;;;;;;;;;;5075934;28;20581;-60
2022/07/12 05:44:29;;;;;;;2.00;1.90;;;;;;;;;;5075410;28;20212;-58
2022/07/12 05:46:57;;;;;;;2.08;1.98;;;;;;;;;;5074257;28;20262;-58
2022/07/12 05:49:24;;;;;;;2.00;1.90;;;;;;;;;;5075183;28;20253;-57
2022/07/12 05:54:37;;;;;;;2.00;1.90;;;;;;;;;;5074673;28;20330;-60
2022/07/12 05:57:06;;;;;;;2.17;1.98;;;;;;;;;;5075479;28;20667;-58
2022/07/12 05:59:36;;;;;;;2.13;2.00;;;;;;;;;;5075336;28;20536;-58
2022/07/12 06:02:04;;;;;;;2.25;2.10;;;;;;;;;;5078858;28;20254;-57
2022/07/12 06:04:31;;;;;;;2.90;1.77;;;;;;;;;;5075351;28;20580;-58
2022/07/12 06:06:59;;;;;;;1.95;1.85;;;;;;;;;;5075692;28;20227;-57
2022/07/12 06:09:26;;;;;;;1.83;1.73;;;;;;;;;;5075170;28;20208;-58
2022/07/12 06:11:54;;;;;;;1.80;1.70;;;;;;;;;;5075182;28;20212;-59
2022/07/12 06:14:23;;;;;;;2.20;1.85;;;;;;;;;;5074385;28;20204;-57
2022/07/12 06:16:51;;;;;;;1.90;1.80;;;;;;;;;;5074250;28;20271;-59
2022/07/12 06:19:18;;;;;;;1.95;1.85;;;;;;;;;;5074904;28;20212;-60
2022/07/12 06:21:46;;;;;;;2.10;2.00;;;;;;;;;;5074524;28;20216;-57
2022/07/12 06:24:13;;;;;;;2.13;1.90;;;;;;;;;;5074568;28;20224;-59
2022/07/12 06:26:41;;;;;;;1.88;1.77;;;;;;;;;;5075238;28;20206;-59
2022/07/12 06:29:08;;;;;;;2.28;1.90;;;;;;;;;;5074609;28;20572;-60
2022/07/12 06:31:37;;;;;;;2.00;1.90;;;;;;;;;;5075433;28;20279;-58
2022/07/12 06:34:05;;;;;;;1.92;1.70;;;;;;;;;;5074433;28;20254;-60
2022/07/12 06:36:32;;;;;;;1.83;1.73;;;;;;;;;;5073943;28;20211;-60
2022/07/12 06:39:00;;;;;;;1.65;1.50;;;;;;;;;;5074284;28;20200;-60
2022/07/12 06:41:29;;;;;;;1.92;1.83;;;;;;;;;;5074332;28;20258;-60
2022/07/12 06:43:56;;;;;;;1.83;1.73;;;;;;;;;;5073787;28;20240;-60
2022/07/12 06:46:24;;;;;;;2.28;2.00;;;;;;;;;;5075070;28;20239;-60
2022/07/12 06:48:53;;;;;;;2.17;1.98;;;;;;;;;;5074036;28;20208;-58
2022/07/12 06:51:20;;;;;;;1.77;1.67;;;;;;;;;;5074553;28;20219;-58
2022/07/12 06:53:48;;;;;;;2.10;2.00;;;;;;;;;;5073906;28;20200;-58
2022/07/12 06:56:16;;;;;;;1.88;1.77;;;;;;;;;;5074013;28;20201;-58
2022/07/12 06:58:44;;;;;;;2.00;1.90;;;;;;;;;;5073018;28;20294;-60
2022/07/12 07:01:11;;;;;;;2.20;2.00;;;;;;;;;;5073062;28;20736;-60
2022/07/12 07:03:39;;;;;;;1.83;1.73;;;;;;;;;;5072151;28;20234;-58
2022/07/12 07:06:09;;;;;;;2.83;2.03;;;;;;;;;;5077903;28;20549;-60
2022/07/12 07:08:36;;;;;;;2.53;1.70;;;;;;;;;;5078468;28;20212;-57
2022/07/12 07:11:04;;;;;;;1.77;1.67;;;;;;;;;;5078053;28;20269;-57
2022/07/12 07:13:31;;;;;;;2.47;1.98;;;;;;;;;;5077945;28;20236;-58
2022/07/12 07:15:59;;;;;;;1.83;1.73;;;;;;;;;;5077863;28;20330;-58
2022/07/12 07:18:26;;;;;;;2.00;1.90;;;;;;;;;;5089732;28;20666;-58
2022/07/12 07:20:54;;;;;;;1.90;1.80;;;;;;;;;;5098310;28;20199;-58
2022/07/12 07:23:23;;;;;;;1.80;1.70;;;;;;;;;;5098338;28;20231;-58
2022/07/12 07:25:51;;;;;;;1.60;1.50;;;;;;;;;;5098416;28;20658;-60
2022/07/12 07:28:18;;;;;;;1.90;1.80;;;;;;;;;;5098482;28;20196;-58
2022/07/12 07:30:55;;;;;;;1.90;1.80;;;;;;;;;;5099578;28;20285;-58
2022/07/12 07:33:22;;;;;;;1.70;1.60;;;;;;;;;;5098568;28;20195;-58
2022/07/12 07:35:50;;;;;;;1.75;1.65;;;;;;;;;;5098547;28;20200;-58
2022/07/12 07:38:18;;;;;;;1.73;1.63;;;;;;;;;;5093021;28;20236;-58
2022/07/12 07:40:47;;;;;;;1.73;1.63;;;;;;;;;;5077987;28;20212;-60
2022/07/12 07:43:14;;;;;;;1.80;1.70;;;;;;;;;;5078075;28;20315;-60
2022/07/12 07:45:42;;;;;;;1.77;1.67;;;;;;;;;;5077996;28;20291;-59
2022/07/12 07:48:10;;;;;;;1.77;1.67;;;;;;;;;;5077442;28;20722;-59
2022/07/12 07:50:38;;;;;;;1.77;1.67;;;;;;;;;;5077378;28;20258;-57
2022/07/12 07:53:05;;;;;;;1.92;1.50;;;;;;;;;;5077985;28;20193;-59
2022/07/12 07:55:33;;;;;;;1.80;1.70;;;;;;;;;;5078206;28;20204;-58
2022/07/12 07:58:02;;;;;;;1.67;1.58;;;;;;;;;;5077193;28;20294;-58
2022/07/12 08:00:29;;;;;;;1.95;1.55;;;;;;;;;;5077210;28;20258;-59
2022/07/12 08:02:57;;;;;;;1.58;1.48;;;;;;;;;;5079914;28;20736;-59
2022/07/12 08:05:24;;;;;;;1.77;1.67;;;;;;;;;;5076953;28;20235;-58
2022/07/12 08:07:52;;;;;;;1.83;1.73;;;;;;;;;;5086769;28;20224;-58
2022/07/12 08:10:19;;;;;;;1.63;1.52;;;;;;;;;;5097355;28;20203;-57
2022/07/12 08:12:47;;;;;;;1.70;1.60;;;;;;;;;;5088923;28;20200;-58
2022/07/12 08:15:16;;;;;;;1.48;1.38;;;;;;;;;;5082080;28;20243;-58
2022/07/12 08:17:43;;;;;;;1.67;1.58;;;;;;;;;;5076689;28;20236;-58
2022/07/12 08:20:12;;;;;;;1.70;1.60;;;;;;;;;;5086236;28;20206;-60
2022/07/12 08:22:44;;;;;;;1.40;1.20;;;;;;;;;;5097411;28;20243;-60
2022/07/12 08:25:12;;;;;;;1.70;1.60;;;;;;;;;;5096732;28;20223;-60
2022/07/12 08:27:40;;;;;;;1.45;1.35;;;;;;;;;;5097417;28;20554;-60
2022/07/12 08:30:08;;;;;;;1.65;1.42;;;;;;;;;;5096219;28;20562;-58
2022/07/12 08:32:37;;;;;;;1.60;1.50;;;;;;;;;;5096566;28;20211;-59
2022/07/12 08:35:05;;;;;;;1.80;1.70;;;;;;;;;;5096700;28;20566;-58
2022/07/12 08:37:32;;;;;;;1.42;1.33;;;;;;;;;;5096300;28;20268;-59
2022/07/12 08:40:00;;;;;;;1.88;1.77;;;;;;;;;;5091919;28;20544;-60
2022/07/12 08:42:27;;;;;;;1.20;1.20;;;;;;;;;;5082464;28;20204;-57
2022/07/12 08:44:58;;;;;;;1.88;1.77;;;;;;;;;;5075518;28;20254;-60
2022/07/12 08:47:26;;;;;;;1.63;1.52;;;;;;;;;;5076157;28;20210;-59
2022/07/12 08:50:14;;;;;;;1.45;1.35;;;;;;;;;;5075713;28;20232;-58
2022/07/12 08:52:44;;;;;;;1.50;1.40;;;;;;;;;;5070079;28;20205;-59
2022/07/12 08:55:19;;;;;;;1.60;1.50;;;;;;;;;;5075755;28;20200;-57
2022/07/12 08:57:46;;;;;;;1.50;1.40;;;;;;;;;;5068052;28;20196;-60
2022/07/12 09:00:14;;;;;;;1.40;1.30;;;;;;;;;;5071531;28;20266;-58
2022/07/12 09:02:45;;;;;;;1.60;1.50;;;;;;;;;;5075359;28;20204;-58
2022/07/12 09:05:13;;;;;;;1.50;1.40;;;;;;;;;;5076050;28;20220;-58
2022/07/12 09:07:41;;;;;;;1.52;1.42;;;;;;;;;;5087356;28;20191;-58
2022/07/12 09:10:11;;;;;;;1.30;1.20;;;;;;;;;;5086283;28;20234;-59
2022/07/12 09:12:40;;;;;;;1.60;1.50;;;;;;;;;;5075913;28;20205;-60
2022/07/12 09:15:17;;;;;;;1.45;1.35;;;;;;;;;;5075589;28;20232;-60
2022/07/12 09:17:56;;;;;;;1.40;1.30;;;;;;;;;;5075207;28;20206;-58
2022/07/12 09:20:24;;;;;;;6.35;1.50;;;;;;;;;;5076740;28;20215;-60
2022/07/12 09:22:56;;;;;;;1.55;1.45;;;;;;;;;;5076317;28;20200;-58
2022/07/12 09:25:25;;;;;;;1.40;1.30;;;;;;;;;;5076378;28;20282;-58
2022/07/12 09:27:53;;;;;;;1.80;1.40;;;;;;;;;;5075650;28;20239;-61
2022/07/12 09:30:21;;;;;;;2.28;1.30;;;;;;;;;;5075755;28;20301;-58
2022/07/12 09:38:26;;;;;;;1.40;1.30;;;;;;;;;;5074975;28;20191;-59
2022/07/12 09:40:56;;;;;;;2.50;1.35;;;;;;;;;;5075565;28;20223;-58
2022/07/12 09:43:25;;;;;;;1.73;1.30;;;;;;;;;;5075688;28;20204;-58
2022/07/12 09:45:53;;;;;;;1.40;1.30;;;;;;;;;;5074660;28;20515;-60
2022/07/12 09:48:21;;;;;;;1.23;1.20;;;;;;;;;;5075220;28;20329;-60
2022/07/12 09:50:50;;;;;;;2.45;1.33;;;;;;;;;;5074737;28;20584;-58
2022/07/12 09:53:23;;;;;;;3.35;1.45;;;;;;;;;;5074485;28;20234;-58
2022/07/12 09:55:52;;;;;;;1.30;1.20;;;;;;;;;;5074470;28;20553;-58
2022/07/12 09:58:27;;;;;;;1.30;1.20;;;;;;;;;;5074106;28;20215;-58
2022/07/12 10:00:56;;;;;;;2.20;1.20;;;;;;;;;;5073991;28;20263;-59
2022/07/12 10:03:25;;;;;;;1.40;1.30;;;;;;;;;;5074657;28;20211;-58
2022/07/12 10:05:55;;;;;;;1.25;1.15;;;;;;;;;;5074685;28;20295;-58
2022/07/12 10:08:23;;;;;;;1.70;1.20;;;;;;;;;;5073949;28;20266;-58
2022/07/12 10:10:51;;;;;;;1.27;1.17;;;;;;;;;;5073643;28;20196;-59
2022/07/12 10:13:20;;;;;;;1.40;1.15;;;;;;;;;;5075287;28;20206;-58
2022/07/12 10:15:50;;;;;;;1.50;1.20;;;;;;;;;;5074427;28;20231;-58
2022/07/12 10:18:18;;;;;;;1.35;1.25;;;;;;;;;;5074961;28;20209;-59
2022/07/12 10:20:46;;;;;;;1.10;1.10;;;;;;;;;;5074647;28;20200;-58
2022/07/12 10:23:30;;;;;;;1.27;1.17;;;;;;;;;;5074442;28;20540;-58
2022/07/12 10:25:58;;;;;;;1.40;1.30;;;;;;;;;;5074281;28;20265;-60
2022/07/12 10:28:54;;;;;;;1.33;1.05;;;;;;;;;;5074888;28;20828;-58
2022/07/12 10:31:25;;;;;;;1.20;1.20;;;;;;;;;;5073531;28;20200;-58
2022/07/12 10:34:01;;;;;;;1.50;1.40;;;;;;;;;;5072770;28;20199;-58
2022/07/12 10:36:28;;;;;;;1.92;1.10;;;;;;;;;;5073569;28;20234;-59
2022/07/12 10:39:13;;;;;;;1.30;1.20;;;;;;;;;;5073767;28;20212;-60
2022/07/12 10:41:40;;;;;;;1.00;1.00;;;;;;;;;;5073880;28;20634;-59
2022/07/12 10:44:08;;;;;;;0.98;0.98;;;;;;;;;;5073988;28;20243;-59
2022/07/12 10:46:37;;;;;;;1.08;1.02;;;;;;;;;;5073882;28;20303;-59
2022/07/12 10:49:28;;;;;;;1.00;1.00;;;;;;;;;;5074407;28;20571;-58
2022/07/12 10:52:14;;;;;;;1.10;1.10;;;;;;;;;;5053539;28;20688;-58
2022/07/12 10:54:43;;;;;;;1.30;1.20;;;;;;;;;;5074516;28;20214;-59
2022/07/12 10:57:11;;;;;;;1.23;1.13;;;;;;;;;;5073062;28;20593;-58
2022/07/12 10:59:39;;;;;;;0.90;0.90;;;;;;;;;;5073302;28;20235;-59
2022/07/12 11:02:08;;;;;;;1.00;1.00;;;;;;;;;;5073217;28;20265;-59
2022/07/12 11:04:36;;;;;;;1.27;1.17;;;;;;;;;;5072939;28;20293;-60
2022/07/12 11:07:03;;;;;;;1.30;1.10;;;;;;;;;;5073280;28;20626;-59
2022/07/12 11:09:31;;;;;;;1.00;1.00;;;;;;;;;;5073518;28;20211;-58
2022/07/12 11:11:58;;;;;;;1.10;1.00;;;;;;;;;;5073772;28;20762;-59
2022/07/12 11:14:29;;;;;;;0.93;0.93;;;;;;;;;;5073978;28;20299;-58
2022/07/12 11:16:57;;;;;;;1.60;1.10;;;;;;;;;;5073617;28;20243;-58
2022/07/12 11:19:27;;;;;;;1.10;1.10;;;;;;;;;;5072821;28;20581;-60
2022/07/12 11:21:56;;;;;;;1.10;1.00;;;;;;;;;;5073011;28;20763;-58
2022/07/12 11:24:25;;;;;;;1.10;1.10;;;;;;;;;;5073559;28;20224;-60
2022/07/12 11:26:53;;;;;;;0.90;0.90;;;;;;;;;;5072087;28;20521;-58
2022/07/12 11:29:20;;;;;;;1.58;1.20;;;;;;;;;;5073566;28;20573;-58
2022/07/12 11:31:48;;;;;;;0.88;0.88;;;;;;;;;;5073141;28;20295;-59
2022/07/12 11:34:22;;;;;;;3.55;1.05;;;;;;;;;;5073176;28;20283;-59
2022/07/12 11:36:54;;;;;;;1.50;1.20;;;;;;;;;;5073831;28;20315;-60
2022/07/12 11:39:31;;;;;;;1.08;1.00;;;;;;;;;;5074379;28;20211;-60
2022/07/12 11:41:59;;;;;;;0.90;0.90;;;;;;;;;;5073525;28;20235;-60
2022/07/12 11:44:42;;;;;;;0.93;0.90;;;;;;;;;;5073442;28;20277;-58
2022/07/12 11:47:10;;;;;;;1.02;1.02;;;;;;;;;;5072572;28;20210;-60
2022/07/12 11:49:37;;;;;;;0.90;0.90;;;;;;;;;;5074024;28;20212;-60
2022/07/12 11:52:08;;;;;;;1.00;1.00;;;;;;;;;;5075084;28;20196;-58
2022/07/12 11:54:36;;;;;;;1.02;0.90;;;;;;;;;;5076290;28;20232;-60
2022/07/12 11:57:07;;;;;;;1.10;1.00;;;;;;;;;;5076730;28;20486;-58
2022/07/12 11:59:35;;;;;;;0.93;0.93;;;;;;;;;;5077307;28;20306;-58
2022/07/12 12:02:07;;;;;;;0.95;0.95;;;;;;;;;;5076133;28;20205;-59
2022/07/12 12:04:35;;;;;;;1.15;1.00;;;;;;;;;;5075631;28;20220;-60
2022/07/12 12:07:02;;;;;;;0.80;0.80;;;;;;;;;;5076128;28;20246;-58
2022/07/12 12:09:32;;;;;;;0.90;0.90;;;;;;;;;;5075816;28;20208;-58
2022/07/12 12:12:00;;;;;;;1.10;1.10;;;;;;;;;;5076225;28;20212;-58
2022/07/12 12:14:27;;;;;;;0.93;0.93;;;;;;;;;;5076102;28;20235;-60
2022/07/12 12:16:55;;;;;;;1.10;1.00;;;;;;;;;;5076048;28;20239;-58
2022/07/12 12:19:22;;;;;;;1.00;1.00;;;;;;;;;;5075643;28;20205;-59
2022/07/12 12:21:50;;;;;;;0.98;0.98;;;;;;;;;;5075743;28;20208;-59
2022/07/12 12:24:17;;;;;;;1.17;0.90;;;;;;;;;;5076155;28;20292;-58
2022/07/12 12:26:46;;;;;;;0.90;0.90;;;;;;;;;;5076430;28;20196;-58
2022/07/12 12:29:14;;;;;;;1.02;1.00;;;;;;;;;;5077054;28;20274;-59
2022/07/12 12:31:41;;;;;;;0.80;0.80;;;;;;;;;;5076628;28;20697;-60
2022/07/12 12:34:13;;;;;;;0.90;0.90;;;;;;;;;;5076387;28;20593;-59
2022/07/12 12:36:41;;;;;;;1.25;0.85;;;;;;;;;;5075712;28;20212;-58
2022/07/12 12:39:09;;;;;;;1.02;0.77;;;;;;;;;;5076153;28;20303;-61
2022/07/12 12:41:40;;;;;;;0.80;0.80;;;;;;;;;;5076054;28;20204;-59
2022/07/12 12:44:15;;;;;;;1.00;1.00;;;;;;;;;;5076135;28;20240;-60
2022/07/12 12:46:46;;;;;;;0.80;0.80;;;;;;;;;;5076365;28;20200;-59
2022/07/12 12:49:14;;;;;;;1.08;0.98;;;;;;;;;;5075774;28;20211;-58
2022/07/12 12:51:58;;;;;;;0.98;0.98;;;;;;;;;;5076393;28;20196;-58
2022/07/12 12:54:36;;;;;;;0.90;0.90;;;;;;;;;;5074278;28;20283;-57
2022/07/12 12:57:03;;;;;;;0.90;0.90;;;;;;;;;;5075101;28;20212;-58
2022/07/12 12:59:33;;;;;;;0.90;0.90;;;;;;;;;;5075712;28;20200;-58
2022/07/12 13:02:00;;;;;;;0.90;0.90;;;;;;;;;;5075657;28;20208;-58
2022/07/12 13:04:30;;;;;;;1.20;0.77;;;;;;;;;;5074312;28;20276;-60
2022/07/12 13:06:58;;;;;;;0.75;0.75;;;;;;;;;;5074351;28;20200;-58
2022/07/12 13:09:25;;;;;;;1.00;1.00;;;;;;;;;;5075284;28;20232;-59
2022/07/12 13:11:53;;;;;;;0.73;0.73;;;;;;;;;;5075556;28;20212;-58
2022/07/12 13:14:21;;;;;;;0.98;0.98;;;;;;;;;;5075137;28;20715;-58
2022/07/12 13:16:49;;;;;;;1.33;1.00;;;;;;;;;;5075040;28;20660;-59
2022/07/12 13:19:17;;;;;;;0.90;0.90;;;;;;;;;;5075023;28;20216;-59
2022/07/12 13:21:45;;;;;;;1.48;0.88;;;;;;;;;;5074824;28;20246;-58
2022/07/12 13:24:12;;;;;;;0.70;0.70;;;;;;;;;;5074328;28;20266;-60
2022/07/12 13:26:39;;;;;;;0.80;0.80;;;;;;;;;;5074970;28;20259;-58
2022/07/12 13:29:07;;;;;;;0.75;0.70;;;;;;;;;;5074533;28;20251;-59
2022/07/12 13:31:35;;;;;;;0.80;0.80;;;;;;;;;;5075069;28;20204;-58
2022/07/12 13:34:04;;;;;;;0.63;0.63;;;;;;;;;;5074452;28;20208;-58
2022/07/12 13:36:31;;;;;;;0.80;0.80;;;;;;;;;;5075080;28;20227;-59
2022/07/12 13:40:10;;;;;;;0.80;0.80;;;;;;;;;;5075081;28;20257;-58
2022/07/12 13:41:46;;;;;;;0.80;0.80;;;;;;;;;;5073425;28;20317;-59
2022/07/12 13:44:14;;;;;;;0.73;0.70;;;;;;;;;;5074507;28;20205;-59
2022/07/12 13:46:41;;;;;;;0.80;0.80;;;;;;;;;;5074165;28;20231;-59
2022/07/12 13:49:12;;;;;;;0.85;0.70;;;;;;;;;;5074163;28;20594;-58
2022/07/12 13:51:39;;;;;;;0.93;0.80;;;;;;;;;;5074934;28;20215;-61
2022/07/12 13:54:07;;;;;;;0.68;0.68;;;;;;;;;;5074799;28;20212;-58
2022/07/12 13:56:35;;;;;;;0.90;0.80;;;;;;;;;;5074838;28;20249;-58
2022/07/12 13:59:04;;;;;;;0.70;0.70;;;;;;;;;;5074566;28;20258;-59
2022/07/12 14:01:31;;;;;;;0.80;0.80;;;;;;;;;;5074920;28;20208;-60
2022/07/12 14:03:59;;;;;;;0.75;0.75;;;;;;;;;;5074326;28;20205;-59
2022/07/12 14:06:30;;;;;;;0.70;0.70;;;;;;;;;;5074134;28;20236;-59
2022/07/12 14:08:58;;;;;;;0.70;0.70;;;;;;;;;;5073556;28;20214;-58
2022/07/12 14:11:26;;;;;;;0.63;0.63;;;;;;;;;;5074828;28;20663;-57
2022/07/12 14:13:53;;;;;;;0.82;0.80;;;;;;;;;;5072570;28;20207;-58
2022/07/12 14:16:21;;;;;;;0.60;0.60;;;;;;;;;;5073106;28;20247;-60
2022/07/12 14:18:48;;;;;;;0.80;0.80;;;;;;;;;;5073534;28;20205;-60
2022/07/12 14:21:16;;;;;;;0.68;0.68;;;;;;;;;;5073854;28;20258;-60
2022/07/12 14:23:45;;;;;;;1.42;0.90;;;;;;;;;;5073361;28;20953;-58
2022/07/12 14:26:13;;;;;;;0.80;0.80;;;;;;;;;;5073869;28;20769;-59
2022/07/12 14:28:40;;;;;;;0.93;0.77;;;;;;;;;;5073699;28;20266;-58
2022/07/12 14:31:08;;;;;;;0.77;0.77;;;;;;;;;;5074513;28;20306;-59
2022/07/12 14:33:36;;;;;;;0.70;0.70;;;;;;;;;;5073582;28;20249;-58
2022/07/12 14:36:03;;;;;;;0.85;0.68;;;;;;;;;;5073252;28;20204;-60
2022/07/12 14:38:30;;;;;;;0.85;0.70;;;;;;;;;;5072917;28;20269;-59
2022/07/12 14:40:59;;;;;;;0.70;0.70;;;;;;;;;;5073217;28;20239;-58
2022/07/12 14:43:27;;;;;;;0.60;0.60;;;;;;;;;;5073845;28;20200;-59
2022/07/12 14:45:56;;;;;;;0.80;0.80;;;;;;;;;;5073784;28;20228;-58
2022/07/12 14:48:24;;;;;;;0.80;0.80;;;;;;;;;;5073132;28;20208;-58
2022/07/12 14:50:52;;;;;;;0.68;0.68;;;;;;;;;;5073897;28;20508;-58
2022/07/12 14:53:19;;;;;;;0.80;0.80;;;;;;;;;;5082183;28;20235;-59
2022/07/12 14:55:49;;;;;;;0.73;0.73;;;;;;;;;;5073007;28;20212;-58
2022/07/12 14:58:18;;;;;;;0.80;0.80;;;;;;;;;;5071974;28;20234;-58
2022/07/12 15:00:46;;;;;;;0.80;0.80;;;;;;;;;;5073269;28;20204;-60
2022/07/12 15:03:13;;;;;;;1.70;0.80;;;;;;;;;;5072147;28;20258;-61